sensor_id;sensor_type;location;lat;lon;timestamp;P1;durP1;ratioP1;P2;durP2;ratioP2
2390;SDS011;22957;50.824;4.360;2023-06-14T00:02:19;1400.10;;;999.90;;
2390;SDS011;22957;50.824;4.360;2023-06-14T00:04:44;1400.60;;;999.90;;
2390;SDS011;22957;50.824;4.360;2023-06-14T00:07:13;1386.57;;;999.90;;
2390;SDS011;22957;50.824;4.360;2023-06-14T00:09:38;1395.27;;;999.90;;
2390;SDS011;22957;50.824;4.360;2023-06-14T00:12:04;1390.53;;;999.90;;
2390;SDS011;22957;50.824;4.360;2023-06-14T00:14:31;1392.23;;;999.90;;
2390;SDS011;22957;50.824;4.360;2023-06-14T00:16:56;1390.43;;;999.90;;
2390;SDS011;22957;50.824;4.360;2023-06-14T00:19:24;1383.50;;;999.90;;
2390;SDS011;22957;50.824;4.360;2023-06-14T00:21:50;1378.67;;;999.90;;
2390;SDS011;22957;50.824;4.360;2023-06-14T00:24:16;1389.73;;;999.90;;
2390;SDS011;22957;50.824;4.360;2023-06-14T00:26:42;1382.87;;;999.90;;
2390;SDS011;22957;50.824;4.360;2023-06-14T00:29:08;1382.83;;;999.90;;
2390;SDS011;22957;50.824;4.360;2023-06-14T00:31:33;1385.90;;;999.90;;
2390;SDS011;22957;50.824;4.360;2023-06-14T00:33:59;1381.80;;;999.90;;
2390;SDS011;22957;50.824;4.360;2023-06-14T00:36:25;1387.20;;;999.90;;
2390;SDS011;22957;50.824;4.360;2023-06-14T00:38:51;1385.10;;;999.90;;
2390;SDS011;22957;50.824;4.360;2023-06-14T00:41:16;1384.83;;;999.90;;
2390;SDS011;22957;50.824;4.360;2023-06-14T00:43:42;1371.40;;;999.90;;
2390;SDS011;22957;50.824;4.360;2023-06-14T00:46:07;1371.83;;;999.90;;
2390;SDS011;22957;50.824;4.360;2023-06-14T00:48:33;1367.47;;;999.90;;
2390;SDS011;22957;50.824;4.360;2023-06-14T00:51:01;1361.57;;;999.90;;
2390;SDS011;22957;50.824;4.360;2023-06-14T00:53:29;1359.90;;;999.90;;
2390;SDS011;22957;50.824;4.360;2023-06-14T00:55:56;1361.10;;;999.90;;
2390;SDS011;22957;50.824;4.360;2023-06-14T00:58:21;1349.97;;;999.90;;
2390;SDS011;22957;50.824;4.360;2023-06-14T01:00:48;1367.80;;;999.90;;
2390;SDS011;22957;50.824;4.360;2023-06-14T01:03:13;1362.33;;;999.90;;
2390;SDS011;22957;50.824;4.360;2023-06-14T01:05:46;1366.60;;;999.90;;
2390;SDS011;22957;50.824;4.360;2023-06-14T01:08:28;1373.23;;;999.90;;
2390;SDS011;22957;50.824;4.360;2023-06-14T01:11:10;1376.83;;;999.90;;
2390;SDS011;22957;50.824;4.360;2023-06-14T01:13:43;1368.67;;;999.90;;
2390;SDS011;22957;50.824;4.360;2023-06-14T01:16:10;1372.03;;;999.90;;
2390;SDS011;22957;50.824;4.360;2023-06-14T01:18:37;1381.77;;;999.90;;
2390;SDS011;22957;50.824;4.360;2023-06-14T01:21:03;1384.93;;;999.90;;
2390;SDS011;22957;50.824;4.360;2023-06-14T01:23:33;1388.33;;;999.90;;
2390;SDS011;22957;50.824;4.360;2023-06-14T01:25:59;1387.30;;;999.90;;
2390;SDS011;22957;50.824;4.360;2023-06-14T01:28:28;1390.27;;;999.90;;
2390;SDS011;22957;50.824;4.360;2023-06-14T01:30:59;1380.87;;;999.90;;
2390;SDS011;22957;50.824;4.360;2023-06-14T01:33:29;1382.67;;;999.90;;
2390;SDS011;22957;50.824;4.360;2023-06-14T01:35:55;1389.37;;;999.90;;
2390;SDS011;22957;50.824;4.360;2023-06-14T01:38:23;1387.53;;;999.90;;
2390;SDS011;22957;50.824;4.360;2023-06-14T01:40:51;1384.37;;;999.90;;
2390;SDS011;22957;50.824;4.360;2023-06-14T01:43:19;1390.77;;;999.90;;
2390;SDS011;22957;50.824;4.360;2023-06-14T01:45:46;1390.07;;;999.90;;
2390;SDS011;22957;50.824;4.360;2023-06-14T01:48:13;1376.93;;;999.90;;
2390;SDS011;22957;50.824;4.360;2023-06-14T01:50:40;1382.93;;;999.90;;
2390;SDS011;22957;50.824;4.360;2023-06-14T01:53:07;1372.77;;;999.90;;
2390;SDS011;22957;50.824;4.360;2023-06-14T01:55:33;1374.47;;;999.90;;
2390;SDS011;22957;50.824;4.360;2023-06-14T01:58:02;1379.17;;;999.90;;
2390;SDS011;22957;50.824;4.360;2023-06-14T02:00:29;1369.03;;;999.90;;
2390;SDS011;22957;50.824;4.360;2023-06-14T02:02:55;1361.83;;;999.90;;
2390;SDS011;22957;50.824;4.360;2023-06-14T02:05:21;1369.53;;;999.90;;
2390;SDS011;22957;50.824;4.360;2023-06-14T02:07:46;1367.10;;;999.90;;
2390;SDS011;22957;50.824;4.360;2023-06-14T02:10:13;1362.50;;;999.90;;
2390;SDS011;22957;50.824;4.360;2023-06-14T02:12:40;1369.20;;;999.90;;
2390;SDS011;22957;50.824;4.360;2023-06-14T02:15:06;1353.07;;;999.90;;
2390;SDS011;22957;50.824;4.360;2023-06-14T02:17:32;1361.70;;;999.90;;
2390;SDS011;22957;50.824;4.360;2023-06-14T02:19:58;1359.20;;;999.90;;
2390;SDS011;22957;50.824;4.360;2023-06-14T02:22:23;1343.30;;;999.90;;
2390;SDS011;22957;50.824;4.360;2023-06-14T02:24:49;1356.43;;;999.90;;
2390;SDS011;22957;50.824;4.360;2023-06-14T02:27:15;1345.73;;;999.90;;
2390;SDS011;22957;50.824;4.360;2023-06-14T02:29:40;1353.93;;;999.90;;
2390;SDS011;22957;50.824;4.360;2023-06-14T02:32:06;1348.73;;;999.90;;
2390;SDS011;22957;50.824;4.360;2023-06-14T02:34:32;1330.07;;;999.90;;
2390;SDS011;22957;50.824;4.360;2023-06-14T02:36:59;1328.53;;;999.90;;
2390;SDS011;22957;50.824;4.360;2023-06-14T02:39:24;1335.73;;;999.90;;
2390;SDS011;22957;50.824;4.360;2023-06-14T02:41:50;1331.37;;;999.90;;
2390;SDS011;22957;50.824;4.360;2023-06-14T02:44:18;1328.33;;;999.90;;
2390;SDS011;22957;50.824;4.360;2023-06-14T02:46:44;1323.67;;;999.90;;
2390;SDS011;22957;50.824;4.360;2023-06-14T02:49:10;1328.83;;;999.90;;
2390;SDS011;22957;50.824;4.360;2023-06-14T02:51:36;1331.60;;;999.90;;
2390;SDS011;22957;50.824;4.360;2023-06-14T02:54:02;1314.80;;;999.90;;
2390;SDS011;22957;50.824;4.360;2023-06-14T02:56:28;1309.50;;;999.90;;
2390;SDS011;22957;50.824;4.360;2023-06-14T02:58:54;1301.23;;;999.90;;
2390;SDS011;22957;50.824;4.360;2023-06-14T03:01:20;1307.83;;;999.90;;
2390;SDS011;22957;50.824;4.360;2023-06-14T03:03:46;1328.77;;;999.90;;
2390;SDS011;22957;50.824;4.360;2023-06-14T03:06:12;1338.10;;;999.90;;
2390;SDS011;22957;50.824;4.360;2023-06-14T03:08:38;1333.87;;;999.90;;
2390;SDS011;22957;50.824;4.360;2023-06-14T03:11:06;1335.23;;;999.90;;
2390;SDS011;22957;50.824;4.360;2023-06-14T03:13:32;1346.87;;;999.90;;
2390;SDS011;22957;50.824;4.360;2023-06-14T03:15:59;1329.93;;;999.90;;
2390;SDS011;22957;50.824;4.360;2023-06-14T03:18:27;1327.97;;;999.90;;
2390;SDS011;22957;50.824;4.360;2023-06-14T03:20:55;1315.30;;;999.90;;
2390;SDS011;22957;50.824;4.360;2023-06-14T03:23:22;1335.43;;;999.90;;
2390;SDS011;22957;50.824;4.360;2023-06-14T03:25:48;1339.47;;;999.90;;
2390;SDS011;22957;50.824;4.360;2023-06-14T03:28:14;1344.53;;;999.90;;
2390;SDS011;22957;50.824;4.360;2023-06-14T03:30:39;1355.97;;;999.90;;
2390;SDS011;22957;50.824;4.360;2023-06-14T03:33:05;1348.30;;;999.90;;
2390;SDS011;22957;50.824;4.360;2023-06-14T03:35:31;1344.03;;;999.90;;
2390;SDS011;22957;50.824;4.360;2023-06-14T03:37:56;1343.20;;;999.90;;
2390;SDS011;22957;50.824;4.360;2023-06-14T03:40:22;1338.80;;;999.90;;
2390;SDS011;22957;50.824;4.360;2023-06-14T03:42:51;1345.27;;;999.90;;
2390;SDS011;22957;50.824;4.360;2023-06-14T03:45:17;1335.00;;;999.90;;
2390;SDS011;22957;50.824;4.360;2023-06-14T03:47:43;1340.37;;;999.90;;
2390;SDS011;22957;50.824;4.360;2023-06-14T03:50:09;1336.07;;;999.90;;
2390;SDS011;22957;50.824;4.360;2023-06-14T03:52:34;1337.33;;;999.90;;
2390;SDS011;22957;50.824;4.360;2023-06-14T03:55:00;1333.97;;;999.90;;
2390;SDS011;22957;50.824;4.360;2023-06-14T03:57:26;1334.37;;;999.90;;
2390;SDS011;22957;50.824;4.360;2023-06-14T03:59:51;1328.17;;;999.90;;
2390;SDS011;22957;50.824;4.360;2023-06-14T04:02:17;1320.37;;;999.90;;
2390;SDS011;22957;50.824;4.360;2023-06-14T04:04:43;1329.87;;;999.90;;
2390;SDS011;22957;50.824;4.360;2023-06-14T04:07:10;1323.67;;;999.90;;
2390;SDS011;22957;50.824;4.360;2023-06-14T04:09:37;1328.30;;;999.90;;
2390;SDS011;22957;50.824;4.360;2023-06-14T04:12:03;1315.93;;;999.90;;
2390;SDS011;22957;50.824;4.360;2023-06-14T04:14:29;1326.43;;;999.90;;
2390;SDS011;22957;50.824;4.360;2023-06-14T04:16:55;1324.90;;;999.90;;
2390;SDS011;22957;50.824;4.360;2023-06-14T04:19:21;1331.73;;;999.90;;
2390;SDS011;22957;50.824;4.360;2023-06-14T04:21:47;1330.50;;;999.90;;
2390;SDS011;22957;50.824;4.360;2023-06-14T04:24:12;1324.50;;;999.90;;
2390;SDS011;22957;50.824;4.360;2023-06-14T04:26:41;1322.73;;;999.90;;
2390;SDS011;22957;50.824;4.360;2023-06-14T04:29:10;1335.67;;;999.90;;
2390;SDS011;22957;50.824;4.360;2023-06-14T04:31:39;1333.23;;;999.90;;
2390;SDS011;22957;50.824;4.360;2023-06-14T04:34:05;1325.70;;;999.90;;
2390;SDS011;22957;50.824;4.360;2023-06-14T04:36:34;1327.47;;;999.90;;
2390;SDS011;22957;50.824;4.360;2023-06-14T04:39:02;1312.50;;;999.90;;
2390;SDS011;22957;50.824;4.360;2023-06-14T04:41:29;1339.50;;;999.90;;
2390;SDS011;22957;50.824;4.360;2023-06-14T04:43:55;1345.30;;;999.90;;
2390;SDS011;22957;50.824;4.360;2023-06-14T04:46:26;1333.00;;;999.90;;
2390;SDS011;22957;50.824;4.360;2023-06-14T04:48:53;1337.47;;;999.90;;
2390;SDS011;22957;50.824;4.360;2023-06-14T04:51:19;1334.97;;;999.90;;
2390;SDS011;22957;50.824;4.360;2023-06-14T04:53:47;1334.03;;;999.90;;
2390;SDS011;22957;50.824;4.360;2023-06-14T04:56:14;1346.80;;;999.90;;
2390;SDS011;22957;50.824;4.360;2023-06-14T04:58:40;1345.37;;;999.90;;
2390;SDS011;22957;50.824;4.360;2023-06-14T05:01:05;1337.33;;;999.90;;
2390;SDS011;22957;50.824;4.360;2023-06-14T05:03:34;1326.60;;;999.90;;
2390;SDS011;22957;50.824;4.360;2023-06-14T05:06:00;1336.70;;;999.90;;
2390;SDS011;22957;50.824;4.360;2023-06-14T05:08:25;1332.73;;;999.90;;
2390;SDS011;22957;50.824;4.360;2023-06-14T05:10:51;1340.77;;;999.90;;
2390;SDS011;22957;50.824;4.360;2023-06-14T05:13:18;1349.37;;;999.90;;
2390;SDS011;22957;50.824;4.360;2023-06-14T05:15:43;1359.00;;;999.90;;
2390;SDS011;22957;50.824;4.360;2023-06-14T05:18:09;1365.27;;;999.90;;
2390;SDS011;22957;50.824;4.360;2023-06-14T05:20:35;1366.07;;;999.90;;
2390;SDS011;22957;50.824;4.360;2023-06-14T05:23:02;1374.43;;;999.90;;
2390;SDS011;22957;50.824;4.360;2023-06-14T05:25:28;1369.67;;;999.90;;
2390;SDS011;22957;50.824;4.360;2023-06-14T05:27:53;1378.23;;;999.90;;
2390;SDS011;22957;50.824;4.360;2023-06-14T05:30:19;1374.80;;;999.90;;
2390;SDS011;22957;50.824;4.360;2023-06-14T05:32:45;1368.97;;;999.90;;
2390;SDS011;22957;50.824;4.360;2023-06-14T05:35:10;1372.87;;;999.90;;
2390;SDS011;22957;50.824;4.360;2023-06-14T05:37:36;1365.10;;;999.90;;
2390;SDS011;22957;50.824;4.360;2023-06-14T05:40:02;1369.73;;;999.90;;
2390;SDS011;22957;50.824;4.360;2023-06-14T05:42:30;1368.57;;;999.90;;
2390;SDS011;22957;50.824;4.360;2023-06-14T05:44:56;1382.23;;;999.90;;
2390;SDS011;22957;50.824;4.360;2023-06-14T05:47:22;1389.87;;;999.90;;
2390;SDS011;22957;50.824;4.360;2023-06-14T05:49:47;1402.87;;;999.90;;
2390;SDS011;22957;50.824;4.360;2023-06-14T05:52:13;1398.40;;;999.90;;
2390;SDS011;22957;50.824;4.360;2023-06-14T05:54:39;1404.20;;;999.90;;
2390;SDS011;22957;50.824;4.360;2023-06-14T05:57:04;1417.10;;;999.90;;
2390;SDS011;22957;50.824;4.360;2023-06-14T05:59:31;1431.53;;;999.90;;
2390;SDS011;22957;50.824;4.360;2023-06-14T06:01:57;1435.80;;;999.90;;
2390;SDS011;22957;50.824;4.360;2023-06-14T06:04:22;1445.07;;;999.90;;
2390;SDS011;22957;50.824;4.360;2023-06-14T06:06:48;1451.43;;;999.90;;
2390;SDS011;22957;50.824;4.360;2023-06-14T06:09:14;1450.17;;;999.90;;
2390;SDS011;22957;50.824;4.360;2023-06-14T06:11:39;1453.97;;;999.90;;
2390;SDS011;22957;50.824;4.360;2023-06-14T06:14:06;1463.13;;;999.90;;
2390;SDS011;22957;50.824;4.360;2023-06-14T06:16:31;1459.37;;;999.90;;
2390;SDS011;22957;50.824;4.360;2023-06-14T06:18:57;1463.53;;;999.90;;
2390;SDS011;22957;50.824;4.360;2023-06-14T06:21:23;1456.10;;;999.90;;
2390;SDS011;22957;50.824;4.360;2023-06-14T06:23:48;1465.23;;;999.90;;
2390;SDS011;22957;50.824;4.360;2023-06-14T06:26:14;1460.17;;;999.90;;
2390;SDS011;22957;50.824;4.360;2023-06-14T06:28:40;1462.77;;;999.90;;
2390;SDS011;22957;50.824;4.360;2023-06-14T06:31:06;1455.57;;;999.90;;
2390;SDS011;22957;50.824;4.360;2023-06-14T06:33:31;1441.50;;;999.90;;
2390;SDS011;22957;50.824;4.360;2023-06-14T06:35:57;1446.70;;;999.90;;
2390;SDS011;22957;50.824;4.360;2023-06-14T06:38:22;1445.73;;;999.90;;
2390;SDS011;22957;50.824;4.360;2023-06-14T06:40:48;1456.30;;;999.90;;
2390;SDS011;22957;50.824;4.360;2023-06-14T06:43:13;1462.10;;;999.90;;
2390;SDS011;22957;50.824;4.360;2023-06-14T06:45:39;1473.33;;;999.90;;
2390;SDS011;22957;50.824;4.360;2023-06-14T06:48:05;1467.33;;;999.90;;
2390;SDS011;22957;50.824;4.360;2023-06-14T06:50:31;1466.23;;;999.90;;
2390;SDS011;22957;50.824;4.360;2023-06-14T06:52:57;1464.40;;;999.90;;
2390;SDS011;22957;50.824;4.360;2023-06-14T06:55:22;1447.60;;;999.90;;
2390;SDS011;22957;50.824;4.360;2023-06-14T06:57:48;1455.20;;;999.90;;
2390;SDS011;22957;50.824;4.360;2023-06-14T07:00:15;1459.83;;;999.90;;
2390;SDS011;22957;50.824;4.360;2023-06-14T07:02:41;1465.97;;;999.90;;
2390;SDS011;22957;50.824;4.360;2023-06-14T07:05:07;1475.93;;;999.90;;
2390;SDS011;22957;50.824;4.360;2023-06-14T07:07:33;1476.10;;;999.90;;
2390;SDS011;22957;50.824;4.360;2023-06-14T07:09:59;1485.07;;;999.90;;
2390;SDS011;22957;50.824;4.360;2023-06-14T07:12:25;1493.40;;;999.90;;
2390;SDS011;22957;50.824;4.360;2023-06-14T07:14:51;1488.73;;;999.90;;
2390;SDS011;22957;50.824;4.360;2023-06-14T07:17:16;1493.00;;;999.90;;
2390;SDS011;22957;50.824;4.360;2023-06-14T07:19:42;1485.80;;;999.90;;
2390;SDS011;22957;50.824;4.360;2023-06-14T07:22:07;1487.57;;;999.90;;
2390;SDS011;22957;50.824;4.360;2023-06-14T07:24:33;1478.83;;;999.90;;
2390;SDS011;22957;50.824;4.360;2023-06-14T07:27:01;1469.13;;;999.90;;
2390;SDS011;22957;50.824;4.360;2023-06-14T07:29:28;1464.47;;;999.90;;
2390;SDS011;22957;50.824;4.360;2023-06-14T07:31:53;1470.60;;;999.90;;
2390;SDS011;22957;50.824;4.360;2023-06-14T07:34:19;1482.70;;;999.90;;
2390;SDS011;22957;50.824;4.360;2023-06-14T07:36:45;1492.53;;;999.90;;
2390;SDS011;22957;50.824;4.360;2023-06-14T07:39:11;1495.47;;;999.90;;
2390;SDS011;22957;50.824;4.360;2023-06-14T07:41:37;1492.93;;;999.90;;
2390;SDS011;22957;50.824;4.360;2023-06-14T07:44:02;1502.60;;;999.90;;
2390;SDS011;22957;50.824;4.360;2023-06-14T07:46:28;1514.37;;;999.90;;
2390;SDS011;22957;50.824;4.360;2023-06-14T07:48:54;1511.50;;;999.90;;
2390;SDS011;22957;50.824;4.360;2023-06-14T07:51:19;1514.30;;;999.90;;
2390;SDS011;22957;50.824;4.360;2023-06-14T07:53:47;1512.93;;;999.90;;
2390;SDS011;22957;50.824;4.360;2023-06-14T07:56:13;1499.20;;;999.90;;
2390;SDS011;22957;50.824;4.360;2023-06-14T07:58:39;1503.73;;;999.90;;
2390;SDS011;22957;50.824;4.360;2023-06-14T08:01:04;1495.53;;;999.90;;
2390;SDS011;22957;50.824;4.360;2023-06-14T08:03:32;1490.47;;;999.90;;
2390;SDS011;22957;50.824;4.360;2023-06-14T08:05:58;1492.47;;;999.90;;
2390;SDS011;22957;50.824;4.360;2023-06-14T08:08:24;1493.40;;;999.90;;
2390;SDS011;22957;50.824;4.360;2023-06-14T08:10:49;1483.97;;;999.90;;
2390;SDS011;22957;50.824;4.360;2023-06-14T08:13:15;1490.13;;;999.90;;
2390;SDS011;22957;50.824;4.360;2023-06-14T08:15:40;1485.50;;;999.90;;
2390;SDS011;22957;50.824;4.360;2023-06-14T08:18:06;1494.70;;;999.90;;
2390;SDS011;22957;50.824;4.360;2023-06-14T08:20:32;1496.80;;;999.90;;
2390;SDS011;22957;50.824;4.360;2023-06-14T08:22:59;1488.67;;;999.90;;
2390;SDS011;22957;50.824;4.360;2023-06-14T08:25:25;1487.97;;;999.90;;
2390;SDS011;22957;50.824;4.360;2023-06-14T08:27:51;1493.33;;;999.90;;
2390;SDS011;22957;50.824;4.360;2023-06-14T08:30:16;1501.07;;;999.90;;
2390;SDS011;22957;50.824;4.360;2023-06-14T08:32:42;1502.97;;;999.90;;
2390;SDS011;22957;50.824;4.360;2023-06-14T08:35:08;1505.37;;;999.90;;
2390;SDS011;22957;50.824;4.360;2023-06-14T08:37:37;1522.60;;;999.90;;
2390;SDS011;22957;50.824;4.360;2023-06-14T08:40:04;1537.10;;;999.90;;
2390;SDS011;22957;50.824;4.360;2023-06-14T08:42:53;1533.43;;;999.90;;
2390;SDS011;22957;50.824;4.360;2023-06-14T08:45:20;1516.30;;;999.90;;
2390;SDS011;22957;50.824;4.360;2023-06-14T08:47:46;1521.47;;;999.90;;
2390;SDS011;22957;50.824;4.360;2023-06-14T08:50:19;1520.17;;;999.90;;
2390;SDS011;22957;50.824;4.360;2023-06-14T08:52:45;1514.50;;;999.90;;
2390;SDS011;22957;50.824;4.360;2023-06-14T08:55:17;1510.73;;;999.90;;
2390;SDS011;22957;50.824;4.360;2023-06-14T08:57:44;1478.40;;;999.90;;
2390;SDS011;22957;50.824;4.360;2023-06-14T09:00:11;1512.10;;;999.90;;
2390;SDS011;22957;50.824;4.360;2023-06-14T09:02:38;1516.80;;;999.90;;
2390;SDS011;22957;50.824;4.360;2023-06-14T09:05:08;1486.43;;;999.90;;
2390;SDS011;22957;50.824;4.360;2023-06-14T09:07:34;1479.80;;;999.90;;
2390;SDS011;22957;50.824;4.360;2023-06-14T09:10:08;1492.57;;;999.90;;
2390;SDS011;22957;50.824;4.360;2023-06-14T09:12:35;1470.00;;;999.90;;
2390;SDS011;22957;50.824;4.360;2023-06-14T09:15:01;1466.90;;;999.90;;
2390;SDS011;22957;50.824;4.360;2023-06-14T09:17:32;1479.33;;;999.90;;
2390;SDS011;22957;50.824;4.360;2023-06-14T09:19:59;1478.73;;;999.90;;
2390;SDS011;22957;50.824;4.360;2023-06-14T09:22:24;1474.77;;;999.90;;
2390;SDS011;22957;50.824;4.360;2023-06-14T09:24:50;1473.63;;;999.90;;
2390;SDS011;22957;50.824;4.360;2023-06-14T09:27:16;1488.10;;;999.90;;
2390;SDS011;22957;50.824;4.360;2023-06-14T09:29:41;1474.37;;;999.90;;
2390;SDS011;22957;50.824;4.360;2023-06-14T09:32:07;1475.10;;;999.90;;
2390;SDS011;22957;50.824;4.360;2023-06-14T09:34:34;1481.67;;;999.90;;
2390;SDS011;22957;50.824;4.360;2023-06-14T09:37:00;1493.07;;;999.90;;
2390;SDS011;22957;50.824;4.360;2023-06-14T09:39:25;1485.70;;;999.90;;
2390;SDS011;22957;50.824;4.360;2023-06-14T09:41:52;1487.97;;;999.90;;
2390;SDS011;22957;50.824;4.360;2023-06-14T09:44:17;1491.30;;;999.90;;
2390;SDS011;22957;50.824;4.360;2023-06-14T09:46:45;1496.07;;;999.90;;
2390;SDS011;22957;50.824;4.360;2023-06-14T09:49:11;1465.47;;;999.90;;
2390;SDS011;22957;50.824;4.360;2023-06-14T09:51:42;1463.67;;;999.90;;
2390;SDS011;22957;50.824;4.360;2023-06-14T09:54:11;1461.53;;;999.90;;
2390;SDS011;22957;50.824;4.360;2023-06-14T09:56:44;1453.47;;;999.90;;
2390;SDS011;22957;50.824;4.360;2023-06-14T09:59:12;1450.27;;;999.90;;
2390;SDS011;22957;50.824;4.360;2023-06-14T10:01:41;1473.87;;;999.90;;
2390;SDS011;22957;50.824;4.360;2023-06-14T10:04:08;1483.90;;;999.90;;
2390;SDS011;22957;50.824;4.360;2023-06-14T10:06:36;1474.37;;;999.90;;
2390;SDS011;22957;50.824;4.360;2023-06-14T10:09:03;1468.10;;;999.90;;
2390;SDS011;22957;50.824;4.360;2023-06-14T10:11:30;1473.03;;;999.90;;
2390;SDS011;22957;50.824;4.360;2023-06-14T10:13:57;1465.27;;;999.90;;
2390;SDS011;22957;50.824;4.360;2023-06-14T10:16:34;1471.47;;;999.90;;
2390;SDS011;22957;50.824;4.360;2023-06-14T10:19:29;1460.80;;;999.90;;
2390;SDS011;22957;50.824;4.360;2023-06-14T10:22:11;1473.00;;;999.90;;
2390;SDS011;22957;50.824;4.360;2023-06-14T10:24:42;1468.10;;;999.90;;
2390;SDS011;22957;50.824;4.360;2023-06-14T10:27:08;1471.77;;;999.90;;
2390;SDS011;22957;50.824;4.360;2023-06-14T10:32:18;1466.00;;;999.90;;
2390;SDS011;22957;50.824;4.360;2023-06-14T10:34:45;1474.07;;;999.90;;
2390;SDS011;22957;50.824;4.360;2023-06-14T10:37:18;1485.70;;;999.90;;
2390;SDS011;22957;50.824;4.360;2023-06-14T10:39:44;1496.77;;;999.90;;
2390;SDS011;22957;50.824;4.360;2023-06-14T10:42:14;1494.77;;;999.90;;
2390;SDS011;22957;50.824;4.360;2023-06-14T10:44:43;1504.70;;;999.90;;
2390;SDS011;22957;50.824;4.360;2023-06-14T10:47:20;1492.33;;;999.90;;
2390;SDS011;22957;50.824;4.360;2023-06-14T10:49:49;1490.53;;;999.90;;
2390;SDS011;22957;50.824;4.360;2023-06-14T10:52:24;1495.43;;;999.90;;
2390;SDS011;22957;50.824;4.360;2023-06-14T10:55:09;1502.93;;;999.90;;
2390;SDS011;22957;50.824;4.360;2023-06-14T10:57:37;1481.93;;;999.90;;
2390;SDS011;22957;50.824;4.360;2023-06-14T11:00:04;1488.90;;;999.90;;
2390;SDS011;22957;50.824;4.360;2023-06-14T11:05:10;1489.30;;;999.90;;
2390;SDS011;22957;50.824;4.360;2023-06-14T11:13:04;1495.93;;;999.90;;
2390;SDS011;22957;50.824;4.360;2023-06-14T11:15:30;1508.23;;;999.90;;
2390;SDS011;22957;50.824;4.360;2023-06-14T11:17:57;1504.83;;;999.90;;
2390;SDS011;22957;50.824;4.360;2023-06-14T11:20:25;1501.47;;;999.90;;
2390;SDS011;22957;50.824;4.360;2023-06-14T11:22:52;1517.60;;;999.90;;
2390;SDS011;22957;50.824;4.360;2023-06-14T11:25:18;1527.97;;;999.90;;
2390;SDS011;22957;50.824;4.360;2023-06-14T11:27:44;1524.03;;;999.90;;
2390;SDS011;22957;50.824;4.360;2023-06-14T11:30:10;1521.07;;;999.90;;
2390;SDS011;22957;50.824;4.360;2023-06-14T11:32:36;1525.97;;;999.90;;
2390;SDS011;22957;50.824;4.360;2023-06-14T11:35:03;1513.03;;;999.90;;
2390;SDS011;22957;50.824;4.360;2023-06-14T11:37:33;1514.10;;;999.90;;
2390;SDS011;22957;50.824;4.360;2023-06-14T11:40:01;1511.13;;;999.90;;
2390;SDS011;22957;50.824;4.360;2023-06-14T11:42:33;1505.43;;;999.90;;
2390;SDS011;22957;50.824;4.360;2023-06-14T11:44:59;1505.00;;;999.90;;
2390;SDS011;22957;50.824;4.360;2023-06-14T11:47:33;1492.90;;;999.90;;
2390;SDS011;22957;50.824;4.360;2023-06-14T11:49:59;1497.43;;;999.90;;
2390;SDS011;22957;50.824;4.360;2023-06-14T11:52:25;1512.67;;;999.90;;
2390;SDS011;22957;50.824;4.360;2023-06-14T11:54:51;1515.03;;;999.90;;
2390;SDS011;22957;50.824;4.360;2023-06-14T11:57:17;1521.50;;;999.90;;
2390;SDS011;22957;50.824;4.360;2023-06-14T11:59:44;1515.93;;;999.90;;
2390;SDS011;22957;50.824;4.360;2023-06-14T12:02:19;1510.60;;;999.90;;
2390;SDS011;22957;50.824;4.360;2023-06-14T12:04:47;1507.90;;;999.90;;
2390;SDS011;22957;50.824;4.360;2023-06-14T12:07:16;1508.33;;;999.90;;
2390;SDS011;22957;50.824;4.360;2023-06-14T12:12:26;1497.83;;;999.90;;
2390;SDS011;22957;50.824;4.360;2023-06-14T12:14:52;1491.90;;;999.90;;
2390;SDS011;22957;50.824;4.360;2023-06-14T12:17:18;1492.03;;;999.90;;
2390;SDS011;22957;50.824;4.360;2023-06-14T12:19:45;1497.27;;;999.90;;
2390;SDS011;22957;50.824;4.360;2023-06-14T12:22:12;1504.53;;;999.90;;
2390;SDS011;22957;50.824;4.360;2023-06-14T12:24:38;1501.70;;;999.90;;
2390;SDS011;22957;50.824;4.360;2023-06-14T12:27:07;1500.37;;;999.90;;
2390;SDS011;22957;50.824;4.360;2023-06-14T12:29:33;1491.30;;;999.90;;
2390;SDS011;22957;50.824;4.360;2023-06-14T12:31:59;1498.60;;;999.90;;
2390;SDS011;22957;50.824;4.360;2023-06-14T12:34:25;1501.60;;;999.90;;
2390;SDS011;22957;50.824;4.360;2023-06-14T12:36:55;1505.93;;;999.90;;
2390;SDS011;22957;50.824;4.360;2023-06-14T12:39:21;1517.07;;;999.90;;
2390;SDS011;22957;50.824;4.360;2023-06-14T12:41:47;1517.03;;;999.90;;
2390;SDS011;22957;50.824;4.360;2023-06-14T12:44:14;1517.90;;;999.90;;
2390;SDS011;22957;50.824;4.360;2023-06-14T12:46:40;1515.23;;;999.90;;
2390;SDS011;22957;50.824;4.360;2023-06-14T12:49:11;1506.63;;;999.90;;
2390;SDS011;22957;50.824;4.360;2023-06-14T12:51:37;1502.80;;;999.90;;
2390;SDS011;22957;50.824;4.360;2023-06-14T12:54:04;1489.23;;;999.90;;
2390;SDS011;22957;50.824;4.360;2023-06-14T12:56:30;1479.53;;;999.90;;
2390;SDS011;22957;50.824;4.360;2023-06-14T12:58:55;1476.47;;;999.90;;
2390;SDS011;22957;50.824;4.360;2023-06-14T13:01:21;1473.20;;;999.90;;
2390;SDS011;22957;50.824;4.360;2023-06-14T13:03:47;1494.37;;;999.90;;
2390;SDS011;22957;50.824;4.360;2023-06-14T13:06:13;1494.00;;;999.90;;
2390;SDS011;22957;50.824;4.360;2023-06-14T13:08:39;1485.33;;;999.90;;
2390;SDS011;22957;50.824;4.360;2023-06-14T13:11:04;1498.60;;;999.90;;
2390;SDS011;22957;50.824;4.360;2023-06-14T13:13:30;1500.33;;;999.90;;
2390;SDS011;22957;50.824;4.360;2023-06-14T13:15:56;1505.87;;;999.90;;
2390;SDS011;22957;50.824;4.360;2023-06-14T13:18:21;1497.27;;;999.90;;
2390;SDS011;22957;50.824;4.360;2023-06-14T13:20:47;1511.37;;;999.90;;
2390;SDS011;22957;50.824;4.360;2023-06-14T13:23:13;1509.47;;;999.90;;
2390;SDS011;22957;50.824;4.360;2023-06-14T13:25:38;1512.77;;;999.90;;
2390;SDS011;22957;50.824;4.360;2023-06-14T13:28:05;1502.40;;;999.90;;
2390;SDS011;22957;50.824;4.360;2023-06-14T13:30:31;1493.17;;;999.90;;
2390;SDS011;22957;50.824;4.360;2023-06-14T13:32:57;1486.80;;;999.90;;
2390;SDS011;22957;50.824;4.360;2023-06-14T13:35:24;1486.93;;;999.90;;
2390;SDS011;22957;50.824;4.360;2023-06-14T13:37:50;1481.90;;;999.90;;
2390;SDS011;22957;50.824;4.360;2023-06-14T13:40:16;1481.70;;;999.90;;
2390;SDS011;22957;50.824;4.360;2023-06-14T13:42:41;1468.23;;;999.90;;
2390;SDS011;22957;50.824;4.360;2023-06-14T13:45:07;1464.53;;;999.90;;
2390;SDS011;22957;50.824;4.360;2023-06-14T13:47:35;1467.17;;;999.90;;
2390;SDS011;22957;50.824;4.360;2023-06-14T13:50:01;1484.23;;;999.90;;
2390;SDS011;22957;50.824;4.360;2023-06-14T13:52:27;1476.10;;;999.90;;
2390;SDS011;22957;50.824;4.360;2023-06-14T13:54:52;1467.77;;;999.90;;
2390;SDS011;22957;50.824;4.360;2023-06-14T13:57:18;1483.80;;;999.90;;
2390;SDS011;22957;50.824;4.360;2023-06-14T13:59:44;1489.00;;;999.90;;
2390;SDS011;22957;50.824;4.360;2023-06-14T14:02:10;1496.53;;;999.90;;
2390;SDS011;22957;50.824;4.360;2023-06-14T14:04:36;1492.90;;;999.90;;
2390;SDS011;22957;50.824;4.360;2023-06-14T14:07:03;1492.30;;;999.90;;
2390;SDS011;22957;50.824;4.360;2023-06-14T14:09:32;1499.40;;;999.90;;